Time;durP1;ratioP1;P1;durP2;ratioP2;P2;SDS_P1;SDS_P2;PMS_P1;PMS_P2;Temp;Humidity;BMP_temperature;BMP_pressure;BME280_temperature;BME280_humidity;BME280_pressure;Samples;Min_cycle;Max_cycle;Signal;HPM_P1;HPM_P2
2022/09/05 00:02:50;;;;;;;0.50;0.50;;;18.80;75.70;;;;;;5067688;28;20242;-49
2022/09/05 00:05:48;;;;;;;0.60;0.60;;;18.70;75.70;;;;;;5061398;28;20205;-53
2022/09/05 00:08:19;;;;;;;0.60;0.60;;;18.70;75.80;;;;;;5045964;28;20201;-52
2022/09/05 00:10:55;;;;;;;1.50;0.50;;;18.70;75.90;;;;;;5067709;28;20276;-54
2022/09/05 00:13:25;;;;;;;0.50;0.50;;;18.60;76.00;;;;;;5067319;28;20207;-51
2022/09/05 00:16:04;;;;;;;0.57;0.57;;;18.60;76.20;;;;;;5068552;28;20194;-54
2022/09/05 00:18:56;;;;;;;0.70;0.70;;;18.60;76.30;;;;;;5066061;28;20193;-54
2022/09/05 00:21:37;;;;;;;0.38;0.38;;;18.60;76.60;;;;;;5068465;28;20185;-56
2022/09/05 00:24:18;;;;;;;0.50;0.50;;;18.50;76.70;;;;;;5065487;28;20194;-52
2022/09/05 00:26:55;;;;;;;0.30;0.30;;;18.50;76.80;;;;;;5064833;28;20228;-53
2022/09/05 00:29:33;;;;;;;0.60;0.60;;;18.50;76.80;;;;;;5065850;28;20221;-55
2022/09/05 00:32:11;;;;;;;0.70;0.70;;;18.50;77.00;;;;;;5064801;28;20448;-54
2022/09/05 00:35:02;;;;;;;1.08;0.60;;;18.40;77.30;;;;;;5063410;28;20677;-51
2022/09/05 00:37:34;;;;;;;0.68;0.68;;;18.40;77.70;;;;;;5068633;28;20272;-56
2022/09/05 00:40:25;;;;;;;0.60;0.60;;;18.40;77.80;;;;;;5061423;28;20193;-55
2022/09/05 00:42:55;;;;;;;0.60;0.60;;;18.40;77.80;;;;;;5067738;28;20185;-55
2022/09/05 00:45:29;;;;;;;0.50;0.50;;;18.40;77.90;;;;;;5061419;28;20220;-56
2022/09/05 00:48:14;;;;;;;0.50;0.50;;;18.40;77.90;;;;;;5067344;28;20595;-57
2022/09/05 00:51:03;;;;;;;0.47;0.47;;;18.50;78.10;;;;;;5068522;28;20228;-55
2022/09/05 00:53:41;;;;;;;0.50;0.50;;;18.40;78.20;;;;;;5065602;28;20217;-54
2022/09/05 00:56:30;;;;;;;0.70;0.70;;;18.40;78.40;;;;;;5066803;28;20198;-54
2022/09/05 00:59:40;;;;;;;0.60;0.60;;;18.40;78.50;;;;;;5063520;28;20251;-55
2022/09/05 01:02:21;;;;;;;0.60;0.60;;;18.40;78.70;;;;;;5046789;22;20225;-77
2022/09/05 01:04:53;;;;;;;0.60;0.60;;;18.40;78.90;;;;;;5030182;28;20301;-77
2022/09/05 01:07:38;;;;;;;0.50;0.50;;;18.30;79.00;;;;;;5030956;28;20208;-77
2022/09/05 01:10:19;;;;;;;0.60;0.60;;;18.30;79.20;;;;;;5027623;28;20201;-77
2022/09/05 01:13:15;;;;;;;0.77;0.52;;;18.30;79.40;;;;;;5028866;28;20206;-76
2022/09/05 01:15:52;;;;;;;1.75;0.75;;;18.30;79.50;;;;;;5027806;28;20276;-76
2022/09/05 01:18:39;;;;;;;0.70;0.70;;;18.30;79.80;;;;;;5031435;28;20212;-76
2022/09/05 01:21:32;;;;;;;0.90;0.80;;;18.20;79.80;;;;;;5028619;28;20190;-76
2022/09/05 01:24:20;;;;;;;0.80;0.70;;;18.20;80.10;;;;;;5030347;28;20317;-76
2022/09/05 01:27:33;;;;;;;0.60;0.60;;;17.80;79.70;;;;;;5030724;28;20202;-76
2022/09/05 01:30:07;;;;;;;0.70;0.60;;;18.20;80.30;;;;;;5027459;28;20285;-76
2022/09/05 01:32:41;;;;;;;0.88;0.63;;;18.20;80.50;;;;;;5028882;28;20304;-76
2022/09/05 01:35:41;;;;;;;0.70;0.70;;;18.20;80.60;;;;;;5026610;28;20268;-76
2022/09/05 01:38:14;;;;;;;0.40;0.40;;;18.20;80.50;;;;;;5029055;28;20194;-76
2022/09/05 01:40:52;;;;;;;0.60;0.60;;;18.20;80.60;;;;;;5030172;28;20202;-76
2022/09/05 01:43:29;;;;;;;0.68;0.68;;;18.20;80.80;;;;;;5030813;28;20202;-76
2022/09/05 01:46:08;;;;;;;0.50;0.50;;;18.20;80.90;;;;;;5031066;28;20562;-76
2022/09/05 01:48:47;;;;;;;0.50;0.50;;;18.20;81.10;;;;;;5034565;28;20227;-76
2022/09/05 01:51:24;;;;;;;0.45;0.45;;;18.20;81.20;;;;;;5031250;28;20260;-76
2022/09/05 01:53:57;;;;;;;0.60;0.60;;;18.20;81.20;;;;;;5034531;28;20213;-76
2022/09/05 01:56:39;;;;;;;0.60;0.60;;;18.20;81.30;;;;;;5032999;28;20202;-76
2022/09/05 01:59:28;;;;;;;0.70;0.70;;;18.20;81.40;;;;;;5037333;28;20212;-77
2022/09/05 02:02:16;;;;;;;0.60;0.60;;;18.20;81.50;;;;;;5032920;28;20234;-76
2022/09/05 02:05:13;;;;;;;0.60;0.60;;;18.20;81.60;;;;;;5032360;28;20188;-77
2022/09/05 02:08:05;;;;;;;0.60;0.60;;;18.10;81.60;;;;;;5032121;28;20212;-77
2022/09/05 02:11:04;;;;;;;0.60;0.60;;;18.10;81.80;;;;;;5024063;28;20210;-77
2022/09/05 02:13:46;;;;;;;0.50;0.50;;;18.20;82.00;;;;;;5035959;28;20205;-76
2022/09/05 02:16:21;;;;;;;0.50;0.50;;;18.10;82.00;;;;;;5033444;28;20228;-76
2022/09/05 02:18:56;;;;;;;0.55;0.55;;;18.00;82.90;;;;;;5031086;28;20200;-77
2022/09/05 02:21:32;;;;;;;0.93;0.75;;;18.00;82.40;;;;;;5031941;28;20201;-76
2022/09/05 02:24:11;;;;;;;0.60;0.60;;;17.90;82.40;;;;;;5032238;28;20201;-77
2022/09/05 02:26:50;;;;;;;0.77;0.50;;;17.90;82.60;;;;;;5031560;28;20209;-77
2022/09/05 02:29:21;;;;;;;0.57;0.57;;;17.90;82.70;;;;;;5031667;28;20280;-77
2022/09/05 02:31:55;;;;;;;0.60;0.60;;;17.90;82.90;;;;;;5031247;28;20214;-76
2022/09/05 02:34:30;;;;;;;1.10;0.55;;;17.90;83.20;;;;;;5031964;28;20212;-76
2022/09/05 02:37:07;;;;;;;0.70;0.70;;;17.90;83.20;;;;;;5031121;28;20553;-76
2022/09/05 02:39:40;;;;;;;0.47;0.47;;;17.80;83.40;;;;;;5031707;28;20258;-76
2022/09/05 02:42:16;;;;;;;1.05;0.70;;;17.80;83.50;;;;;;5032941;28;20194;-77
2022/09/05 02:44:55;;;;;;;0.63;0.63;;;17.80;83.60;;;;;;5031456;28;20221;-76
2022/09/05 02:47:30;;;;;;;0.50;0.50;;;17.80;83.70;;;;;;5032215;28;20228;-76
2022/09/05 02:50:10;;;;;;;0.55;0.55;;;17.80;83.80;;;;;;5032031;28;20240;-77
2022/09/05 02:52:40;;;;;;;0.70;0.70;;;17.70;83.90;;;;;;5031125;28;20210;-76
2022/09/05 02:55:16;;;;;;;0.68;0.68;;;17.70;84.10;;;;;;5030756;28;20245;-76
2022/09/05 02:57:51;;;;;;;0.52;0.52;;;17.70;84.20;;;;;;5031758;28;20660;-76
2022/09/05 03:00:21;;;;;;;0.60;0.60;;;17.70;84.20;;;;;;5052646;28;20201;-77
2022/09/05 03:03:21;;;;;;;0.47;0.47;;;17.70;84.50;;;;;;5054444;28;20195;-76
2022/09/05 03:05:56;;;;;;;0.60;0.60;;;17.70;84.60;;;;;;5026176;28;20210;-77
2022/09/05 03:08:57;;;;;;;0.43;0.43;;;17.70;84.80;;;;;;5054522;28;20219;-77
2022/09/05 03:12:06;;;;;;;0.60;0.60;;;17.70;84.60;;;;;;5052266;28;20236;-76
2022/09/05 03:15:23;;;;;;;1.63;0.75;;;17.70;84.70;;;;;;5054665;28;20227;-76
2022/09/05 03:18:26;;;;;;;0.73;0.50;;;17.70;84.90;;;;;;5053620;28;20194;-76
2022/09/05 03:21:38;;;;;;;0.60;0.60;;;17.70;85.00;;;;;;5001863;28;20681;-76
2022/09/05 03:24:43;;;;;;;0.47;0.47;;;17.70;85.10;;;;;;5029358;28;20203;-76
2022/09/05 03:27:52;;;;;;;0.65;0.52;;;17.70;85.20;;;;;;5029043;28;20333;-76
2022/09/05 03:30:20;;;;;;;1.25;0.60;;;17.70;85.30;;;;;;5009688;28;20234;-76
2022/09/05 03:33:22;;;;;;;0.73;0.73;;;17.70;85.30;;;;;;5028720;28;20785;-76
2022/09/05 03:36:25;;;;;;;0.95;0.60;;;17.70;85.40;;;;;;5028427;28;20193;-76
2022/09/05 03:39:30;;;;;;;0.63;0.63;;;17.70;85.50;;;;;;5031580;28;20297;-76
2022/09/05 03:42:21;;;;;;;0.60;0.60;;;17.70;85.50;;;;;;5029073;28;20198;-76
2022/09/05 03:45:35;;;;;;;0.70;0.70;;;17.70;85.60;;;;;;5029790;28;20222;-76
2022/09/05 03:48:36;;;;;;;0.70;0.60;;;17.70;85.60;;;;;;4969495;28;20231;-76
2022/09/05 03:51:19;;;;;;;0.60;0.60;;;17.90;85.90;;;;;;5030264;28;20182;-76
2022/09/05 03:54:17;;;;;;;0.70;0.70;;;17.70;85.70;;;;;;5030664;28;20301;-76
2022/09/05 03:57:10;;;;;;;0.70;0.70;;;17.60;85.60;;;;;;5032792;28;20283;-76
2022/09/05 04:00:06;;;;;;;0.60;0.60;;;17.60;85.70;;;;;;5028808;28;20275;-76
2022/09/05 04:02:38;;;;;;;0.70;0.70;;;17.60;85.90;;;;;;5024792;28;20316;-77
2022/09/05 04:05:10;;;;;;;0.65;0.65;;;17.60;85.90;;;;;;5031135;28;20202;-77
2022/09/05 04:07:42;;;;;;;0.55;0.55;;;17.60;86.00;;;;;;5027481;28;20214;-77
2022/09/05 04:10:22;;;;;;;1.27;0.63;;;17.50;85.90;;;;;;5029966;28;20207;-78
2022/09/05 04:12:57;;;;;;;1.10;1.00;;;17.50;86.00;;;;;;5031600;28;20387;-77
2022/09/05 04:15:32;;;;;;;0.70;0.70;;;17.50;86.50;;;;;;5031121;28;20224;-77
2022/09/05 04:18:02;;;;;;;1.02;0.98;;;17.40;86.30;;;;;;5030680;28;20188;-77
2022/09/05 04:20:38;;;;;;;0.70;0.70;;;17.40;87.00;;;;;;5028671;28;20559;-77
2022/09/05 04:23:13;;;;;;;1.10;1.07;;;17.40;86.60;;;;;;5046247;28;20217;-77
2022/09/05 04:25:52;;;;;;;0.90;0.90;;;17.40;86.50;;;;;;5029887;28;20273;-77
2022/09/05 04:28:38;;;;;;;1.13;0.97;;;17.30;86.60;;;;;;5030311;28;20201;-77
2022/09/05 04:31:12;;;;;;;0.87;0.87;;;17.30;86.60;;;;;;5028252;28;20187;-77
2022/09/05 04:33:47;;;;;;;1.00;1.00;;;17.30;86.70;;;;;;5030406;28;20203;-77
2022/09/05 04:36:19;;;;;;;1.48;0.90;;;17.30;86.70;;;;;;5030538;28;20195;-77
2022/09/05 04:39:07;;;;;;;2.83;1.10;;;17.30;86.80;;;;;;5030890;28;20204;-77
2022/09/05 04:41:39;;;;;;;1.13;0.90;;;17.30;86.80;;;;;;5029784;28;20265;-77
2022/09/05 04:44:15;;;;;;;0.82;0.75;;;17.70;87.20;;;;;;5030702;28;20292;-77
2022/09/05 04:46:48;;;;;;;2.53;1.10;;;17.30;87.10;;;;;;5032218;28;20270;-77
2022/09/05 04:49:19;;;;;;;1.15;1.00;;;17.30;86.90;;;;;;5046638;28;20301;-77
2022/09/05 04:52:18;;;;;;;2.00;1.00;;;17.30;86.90;;;;;;5029519;28;20224;-77
2022/09/05 04:54:48;;;;;;;4.88;1.05;;;17.30;86.70;;;;;;5020757;28;20303;-77
2022/09/05 04:57:22;;;;;;;1.52;1.10;;;17.30;86.60;;;;;;5031323;28;20204;-77
2022/09/05 04:59:57;;;;;;;5.23;1.00;;;17.30;86.40;;;;;;5027062;28;20279;-77
2022/09/05 05:02:32;;;;;;;1.40;1.30;;;17.30;86.30;;;;;;5029053;28;20226;-77
2022/09/05 05:05:01;;;;;;;2.72;2.08;;;17.20;86.30;;;;;;5030339;28;20593;-77
2022/09/05 05:07:39;;;;;;;3.50;1.50;;;17.20;86.60;;;;;;5029043;28;20259;-77
2022/09/05 05:10:09;;;;;;;1.60;1.50;;;17.20;86.70;;;;;;5028263;28;20230;-77
2022/09/05 05:12:47;;;;;;;1.67;1.45;;;17.20;86.80;;;;;;5030626;28;20202;-77
2022/09/05 05:15:20;;;;;;;1.00;1.00;;;17.20;86.70;;;;;;5028836;28;20704;-77
2022/09/05 05:17:54;;;;;;;1.13;1.08;;;17.30;86.80;;;;;;5028568;28;20187;-77
2022/09/05 05:20:26;;;;;;;1.03;0.97;;;17.30;86.80;;;;;;5027191;28;20202;-77
2022/09/05 05:23:00;;;;;;;8.00;1.43;;;17.30;87.00;;;;;;5027326;28;20196;-77
2022/09/05 05:25:28;;;;;;;2.05;1.67;;;17.30;87.00;;;;;;5029640;28;20225;-77
2022/09/05 05:28:09;;;;;;;1.40;1.30;;;17.30;88.20;;;;;;5035242;28;20204;-77
2022/09/05 05:30:40;;;;;;;3.00;1.10;;;17.30;87.30;;;;;;5026705;28;20200;-77
2022/09/05 05:33:16;;;;;;;1.30;1.20;;;17.40;87.50;;;;;;5030445;28;20347;-77
2022/09/05 05:35:48;;;;;;;1.37;1.27;;;17.40;87.50;;;;;;5030634;28;20250;-77
2022/09/05 05:38:31;;;;;;;6.83;2.33;;;17.50;87.80;;;;;;5029665;28;20597;-77
2022/09/05 05:41:10;;;;;;;2.42;1.95;;;17.50;88.10;;;;;;5031546;28;20192;-77
2022/09/05 05:43:40;;;;;;;2.23;1.57;;;17.50;88.40;;;;;;5028231;28;20199;-77
2022/09/05 05:46:14;;;;;;;2.63;1.43;;;17.50;88.70;;;;;;5030813;28;20247;-77
2022/09/05 05:48:43;;;;;;;2.45;1.58;;;17.60;88.70;;;;;;5030609;28;20193;-77
2022/09/05 05:51:26;;;;;;;4.30;1.60;;;17.60;88.70;;;;;;5026730;28;20189;-77
2022/09/05 05:54:00;;;;;;;3.67;1.80;;;16.50;87.60;;;;;;5032190;28;20208;-77
2022/09/05 05:56:47;;;;;;;3.47;1.75;;;17.70;89.00;;;;;;5030158;28;20284;-77
2022/09/05 05:59:32;;;;;;;3.67;1.90;;;17.80;88.90;;;;;;5027267;28;20383;-78
2022/09/05 06:02:28;;;;;;;4.88;1.95;;;17.80;88.80;;;;;;5029218;28;20319;-78
2022/09/05 06:08:44;;;;;;;2.00;1.75;;;17.90;88.70;;;;;;5028722;28;20292;-77
2022/09/05 06:12:21;;;;;;;2.40;2.20;;;17.90;88.70;;;;;;5026502;28;20332;-77
2022/09/05 06:15:33;;;;;;;4.07;1.85;;;17.90;88.70;;;;;;4938882;28;20232;-77
2022/09/05 06:18:43;;;;;;;2.80;2.10;;;17.90;88.80;;;;;;4866868;29;20222;-77
2022/09/05 06:21:50;;;;;;;2.58;2.13;;;17.90;88.90;;;;;;5029266;28;20195;-77
2022/09/05 06:25:26;;;;;;;3.33;2.50;;;17.90;89.70;;;;;;5029147;28;20536;-77
2022/09/05 06:28:06;;;;;;;2.42;2.22;;;17.90;89.80;;;;;;5029898;28;20287;-77
2022/09/05 06:31:03;;;;;;;2.30;2.10;;;17.90;89.00;;;;;;5031805;28;20301;-77
2022/09/05 06:33:52;;;;;;;4.05;2.03;;;17.90;89.10;;;;;;5030712;28;20213;-77
2022/09/05 06:36:40;;;;;;;1.90;1.80;;;18.90;90.00;;;;;;5034321;28;20198;-77
2022/09/05 06:39:18;;;;;;;2.10;1.80;;;18.00;89.20;;;;;;5035133;28;20206;-77
2022/09/05 06:42:08;;;;;;;5.80;2.40;;;18.20;89.40;;;;;;5032043;28;20224;-77
2022/09/05 06:45:06;;;;;;;2.40;2.20;;;18.10;89.30;;;;;;5030381;28;20208;-77
2022/09/05 06:47:35;;;;;;;2.60;2.22;;;18.10;89.20;;;;;;5032436;28;20209;-77
2022/09/05 06:50:10;;;;;;;5.22;2.60;;;18.10;89.20;;;;;;5030685;28;20203;-77
2022/09/05 06:53:08;;;;;;;2.50;2.20;;;18.20;89.30;;;;;;5032782;28;20295;-77
2022/09/05 06:55:54;;;;;;;2.35;2.15;;;18.20;89.30;;;;;;5031548;28;20658;-77
2022/09/05 06:59:00;;;;;;;2.67;1.80;;;18.20;89.50;;;;;;5033135;28;20205;-78
2022/09/05 07:01:32;;;;;;;3.78;1.85;;;18.20;89.30;;;;;;5029776;28;20238;-78
2022/09/05 07:04:20;;;;;;;2.75;1.95;;;18.30;90.00;;;;;;5032302;28;20285;-78
2022/09/05 07:10:37;;;;;;;2.28;2.08;;;18.40;90.00;;;;;;5030020;28;20508;-78
2022/09/05 07:13:16;;;;;;;4.25;2.22;;;18.40;90.10;;;;;;5030206;28;20627;-78
2022/09/05 07:15:53;;;;;;;2.45;2.25;;;18.40;90.30;;;;;;5030035;28;20202;-78
2022/09/05 07:18:36;;;;;;;2.13;2.00;;;18.40;90.20;;;;;;5030274;28;20259;-78
2022/09/05 07:21:24;;;;;;;3.00;2.08;;;18.50;90.30;;;;;;5030129;28;20203;-78
2022/09/05 07:24:00;;;;;;;1.95;1.85;;;18.50;90.40;;;;;;5030898;28;20190;-78
2022/09/05 07:26:29;;;;;;;5.75;2.10;;;18.50;90.60;;;;;;5026714;28;20209;-78
2022/09/05 07:29:02;;;;;;;1.63;1.52;;;18.50;90.50;;;;;;5031682;28;20202;-77
2022/09/05 07:31:32;;;;;;;3.78;2.17;;;18.60;90.60;;;;;;5030611;28;20197;-78
2022/09/05 07:34:10;;;;;;;2.10;1.95;;;18.60;90.60;;;;;;5031341;28;20230;-78
2022/09/05 07:36:42;;;;;;;3.50;2.13;;;18.60;90.60;;;;;;5028368;28;20264;-78
2022/09/05 07:39:15;;;;;;;2.30;2.10;;;18.60;90.60;;;;;;5030735;28;20199;-78
2022/09/05 07:41:49;;;;;;;2.75;2.20;;;18.60;90.60;;;;;;5030728;28;20208;-78
2022/09/05 07:44:26;;;;;;;2.63;2.20;;;18.60;90.70;;;;;;5035198;28;20194;-78
2022/09/05 07:47:03;;;;;;;2.97;2.03;;;18.60;90.80;;;;;;5030150;28;20209;-78
2022/09/05 07:49:41;;;;;;;3.78;2.30;;;18.70;91.10;;;;;;5030567;28;20187;-78
2022/09/05 07:52:18;;;;;;;3.05;2.53;;;18.80;91.50;;;;;;5032232;28;20216;-78
2022/09/05 07:55:00;;;;;;;2.20;2.00;;;18.70;91.40;;;;;;5030067;28;20206;-78
2022/09/05 07:57:49;;;;;;;2.88;2.40;;;19.10;91.60;;;;;;5034038;28;20206;-79
2022/09/05 08:00:19;;;;;;;5.15;2.60;;;18.20;90.80;;;;;;5015910;28;20238;-78
2022/09/05 08:02:47;;;;;;;3.63;2.75;;;18.80;91.10;;;;;;5032550;28;20226;-78
2022/09/05 08:05:18;;;;;;;2.50;2.30;;;18.80;91.40;;;;;;5031242;28;20190;-77
2022/09/05 08:07:50;;;;;;;2.47;2.10;;;18.80;91.20;;;;;;5035312;28;20191;-77
2022/09/05 08:10:24;;;;;;;2.90;2.35;;;18.80;91.50;;;;;;5028654;28;20199;-77
2022/09/05 08:12:56;;;;;;;3.33;2.42;;;18.90;91.30;;;;;;5032190;28;20202;-78
2022/09/05 08:15:30;;;;;;;3.08;2.35;;;18.70;91.20;;;;;;5027623;28;20198;-79
2022/09/05 10:02:40;;;;;;;0.55;0.55;;;19.40;78.90;;;;;;5027030;28;20299;-58
2022/09/05 10:05:32;;;;;;;0.50;0.50;;;19.50;79.20;;;;;;5017917;28;20712;-56
2022/09/05 10:08:19;;;;;;;6.82;1.13;;;19.50;79.20;;;;;;5025697;28;20190;-55
2022/09/05 10:11:18;;;;;;;1.05;0.60;;;19.60;78.70;;;;;;5032717;28;20285;-56
2022/09/05 10:14:25;;;;;;;0.77;0.65;;;19.50;78.20;;;;;;5028151;28;20199;-54
2022/09/05 10:17:16;;;;;;;0.47;0.47;;;19.60;78.50;;;;;;5031760;28;20190;-54
2022/09/05 10:20:04;;;;;;;0.50;0.50;;;19.60;78.50;;;;;;5031872;28;20186;-53
2022/09/05 10:22:54;;;;;;;0.40;0.40;;;19.70;78.80;;;;;;5030696;28;20213;-56
2022/09/05 10:25:54;;;;;;;0.50;0.50;;;19.80;79.10;;;;;;5024369;28;20540;-56
2022/09/05 10:28:32;;;;;;;0.40;0.40;;;19.80;79.30;;;;;;5022952;28;20202;-56
2022/09/05 10:31:10;;;;;;;0.75;0.40;;;19.80;79.40;;;;;;5026291;28;20696;-54
2022/09/05 10:33:41;;;;;;;0.55;0.50;;;19.90;79.60;;;;;;5030445;28;20213;-57
2022/09/05 10:36:23;;;;;;;0.50;0.50;;;19.90;79.50;;;;;;5039365;28;20197;-57
2022/09/05 10:39:14;;;;;;;0.88;0.50;;;20.00;80.50;;;;;;5028804;28;20214;-56
2022/09/05 10:41:48;;;;;;;1.25;0.70;;;20.20;79.40;;;;;;5032668;28;20283;-57
2022/09/05 10:44:24;;;;;;;2.03;1.20;;;20.20;76.40;;;;;;5028964;28;20273;-57
2022/09/05 10:47:04;;;;;;;3.22;0.70;;;20.20;76.40;;;;;;5031829;28;20573;-58
2022/09/05 10:49:40;;;;;;;0.70;0.70;;;20.30;77.10;;;;;;5040201;28;20609;-56
2022/09/05 10:52:12;;;;;;;0.82;0.65;;;20.50;77.90;;;;;;5028913;28;20198;-57
2022/09/05 10:55:01;;;;;;;2.72;0.77;;;20.60;77.90;;;;;;5027806;28;20210;-57
2022/09/05 10:57:39;;;;;;;0.65;0.65;;;20.80;78.00;;;;;;5030246;28;20732;-57
2022/09/05 11:00:19;;;;;;;0.70;0.70;;;20.80;74.80;;;;;;5035614;28;20661;-57
2022/09/05 11:02:48;;;;;;;0.50;0.50;;;20.80;74.00;;;;;;5029912;28;20230;-56
2022/09/05 11:05:23;;;;;;;0.60;0.60;;;20.90;74.90;;;;;;5026355;28;20209;-56
2022/09/05 11:08:02;;;;;;;0.50;0.50;;;21.10;75.40;;;;;;5027248;28;20208;-57
2022/09/05 11:10:35;;;;;;;2.50;0.95;;;21.30;75.20;;;;;;5030648;28;20185;-57
2022/09/05 11:13:22;;;;;;;0.68;0.50;;;21.40;75.00;;;;;;5037991;28;20293;-58
2022/09/05 11:16:03;;;;;;;0.63;0.63;;;21.50;75.00;;;;;;5029859;28;20195;-57
2022/09/05 11:18:59;;;;;;;0.70;0.70;;;21.50;74.90;;;;;;5029160;28;20225;-54
2022/09/05 11:21:42;;;;;;;1.05;0.90;;;21.50;74.60;;;;;;5031552;28;20198;-55
2022/09/05 11:24:21;;;;;;;0.60;0.60;;;21.50;74.50;;;;;;5037835;28;20186;-58
2022/09/05 11:26:56;;;;;;;0.85;0.85;;;21.40;74.10;;;;;;5040292;28;20196;-56
2022/09/05 11:29:32;;;;;;;0.63;0.63;;;21.40;74.00;;;;;;5029764;28;20243;-57
2022/09/05 11:32:23;;;;;;;1.30;0.90;;;21.40;72.60;;;;;;5031064;28;20217;-57
2022/09/05 11:35:09;;;;;;;0.77;0.77;;;21.40;72.60;;;;;;5021430;28;20257;-55
2022/09/05 11:38:00;;;;;;;0.55;0.55;;;21.40;72.30;;;;;;5026757;28;20658;-56
2022/09/05 11:40:49;;;;;;;0.50;0.50;;;21.50;71.60;;;;;;5030763;28;20214;-56
2022/09/05 11:43:51;;;;;;;0.50;0.50;;;21.50;70.30;;;;;;5039202;28;20205;-55
2022/09/05 11:46:28;;;;;;;0.55;0.55;;;21.50;70.10;;;;;;5013449;28;20292;-58
2022/09/05 11:49:20;;;;;;;0.88;0.47;;;21.50;69.40;;;;;;5040019;28;20618;-54
2022/09/05 11:52:16;;;;;;;0.50;0.50;;;21.60;69.40;;;;;;5028892;28;20202;-54
2022/09/05 11:55:14;;;;;;;0.50;0.50;;;21.50;68.60;;;;;;5002778;28;20645;-57
2022/09/05 11:57:55;;;;;;;0.52;0.52;;;21.70;69.10;;;;;;5031111;28;20195;-53
2022/09/05 12:00:25;;;;;;;0.95;0.50;;;21.80;69.50;;;;;;5030377;28;20217;-57
2022/09/05 12:03:10;;;;;;;0.60;0.60;;;21.80;69.20;;;;;;5026493;28;20321;-54
2022/09/05 12:06:06;;;;;;;0.68;0.47;;;21.90;69.30;;;;;;5012246;28;20737;-54
2022/09/05 12:08:38;;;;;;;0.35;0.35;;;21.90;68.90;;;;;;5035797;28;20194;-57
2022/09/05 12:11:23;;;;;;;0.60;0.60;;;21.90;68.90;;;;;;5040739;28;20198;-57
2022/09/05 12:13:59;;;;;;;0.47;0.47;;;22.00;68.90;;;;;;5030337;28;20617;-57
2022/09/05 12:16:45;;;;;;;0.40;0.40;;;22.10;68.90;;;;;;5030039;28;20205;-56
2022/09/05 12:19:22;;;;;;;0.40;0.40;;;22.10;69.00;;;;;;5036293;28;20198;-55
2022/09/05 12:22:25;;;;;;;0.40;0.40;;;22.10;68.90;;;;;;5027888;28;20199;-57
2022/09/05 12:25:19;;;;;;;0.55;0.55;;;22.20;69.00;;;;;;5019137;28;20212;-56
2022/09/05 12:27:53;;;;;;;0.40;0.40;;;22.30;68.50;;;;;;5037304;28;20209;-58
2022/09/05 12:30:26;;;;;;;0.50;0.50;;;22.40;68.40;;;;;;5027423;28;20226;-58
2022/09/05 12:32:55;;;;;;;0.35;0.35;;;22.50;68.20;;;;;;5025834;28;20196;-58
2022/09/05 12:35:35;;;;;;;0.60;0.60;;;22.50;68.10;;;;;;5032260;28;20236;-57
2022/09/05 12:38:13;;;;;;;0.60;0.60;;;22.50;68.10;;;;;;5024421;28;20638;-56
2022/09/05 12:40:48;;;;;;;0.65;0.63;;;22.50;67.70;;;;;;5026853;28;20187;-56
2022/09/05 12:43:19;;;;;;;0.40;0.40;;;22.50;67.90;;;;;;5020984;28;20385;-57
2022/09/05 12:45:54;;;;;;;0.40;0.40;;;22.50;68.20;;;;;;5028596;28;20191;-57
2022/09/05 12:48:26;;;;;;;0.45;0.40;;;22.50;68.40;;;;;;5031156;28;20546;-55
2022/09/05 12:50:58;;;;;;;0.52;0.40;;;22.50;68.50;;;;;;5013032;28;20198;-58
2022/09/05 12:53:33;;;;;;;0.52;0.52;;;22.50;68.50;;;;;;5035255;28;20197;-57
2022/09/05 12:56:07;;;;;;;0.50;0.50;;;22.50;68.00;;;;;;5025336;28;20765;-55
2022/09/05 12:58:37;;;;;;;0.40;0.40;;;22.50;68.10;;;;;;5026865;28;20288;-60
2022/09/05 13:01:23;;;;;;;0.50;0.50;;;22.60;68.10;;;;;;5035182;28;20203;-57
2022/09/05 13:03:56;;;;;;;2.53;0.60;;;22.60;68.10;;;;;;5030098;28;20286;-54
2022/09/05 13:06:28;;;;;;;0.60;0.60;;;22.60;68.00;;;;;;5027253;28;20206;-53
2022/09/05 13:09:02;;;;;;;0.82;0.60;;;22.60;68.20;;;;;;5008773;28;20198;-56
2022/09/05 13:11:34;;;;;;;0.60;0.60;;;22.70;68.30;;;;;;5016249;28;20222;-55
2022/09/05 13:14:06;;;;;;;0.57;0.57;;;22.60;68.00;;;;;;5028700;28;20198;-57
2022/09/05 13:16:40;;;;;;;0.65;0.65;;;22.60;67.90;;;;;;5029132;28;20194;-58
2022/09/05 13:19:22;;;;;;;0.57;0.57;;;22.60;68.00;;;;;;5028180;28;20229;-54
2022/09/05 13:21:51;;;;;;;0.50;0.50;;;22.60;68.00;;;;;;5027861;28;20281;-53
2022/09/05 13:24:29;;;;;;;1.60;0.70;;;22.60;68.10;;;;;;5017445;28;20264;-56
2022/09/05 13:27:04;;;;;;;0.40;0.40;;;22.60;67.70;;;;;;5028309;28;20303;-55
2022/09/05 13:29:50;;;;;;;0.60;0.60;;;22.50;67.20;;;;;;5029093;28;20202;-57
2022/09/05 13:32:24;;;;;;;0.50;0.50;;;22.50;67.60;;;;;;5028986;28;20198;-56
2022/09/05 13:34:55;;;;;;;0.40;0.40;;;22.50;67.90;;;;;;5038844;28;20205;-52
2022/09/05 13:37:28;;;;;;;0.43;0.43;;;22.50;67.90;;;;;;5026686;28;20198;-58
2022/09/05 13:39:58;;;;;;;0.57;0.57;;;22.50;67.70;;;;;;5033672;28;20255;-56
2022/09/05 13:42:29;;;;;;;0.73;0.52;;;22.40;67.00;;;;;;5038790;28;20249;-54
2022/09/05 13:44:59;;;;;;;0.50;0.50;;;22.30;67.00;;;;;;5026511;28;20266;-56
2022/09/05 13:47:43;;;;;;;0.45;0.45;;;22.30;67.00;;;;;;5026522;28;20294;-56
2022/09/05 13:50:21;;;;;;;0.40;0.40;;;22.20;67.20;;;;;;5028506;28;20198;-54
2022/09/05 13:52:53;;;;;;;0.50;0.50;;;22.30;67.40;;;;;;5025948;28;20664;-57
2022/09/05 13:55:35;;;;;;;0.50;0.50;;;22.30;67.50;;;;;;5023725;28;20291;-55
2022/09/05 13:58:07;;;;;;;0.50;0.50;;;22.30;67.40;;;;;;5026091;28;20217;-56
2022/09/05 14:01:16;;;;;;;0.57;0.57;;;22.30;67.10;;;;;;5033509;28;20216;-55
2022/09/05 14:04:20;;;;;;;3.63;0.75;;;22.20;66.80;;;;;;5019938;28;20367;-55
2022/09/05 14:07:31;;;;;;;0.65;0.65;;;22.20;66.30;;;;;;5037306;28;20194;-55
2022/09/05 14:10:31;;;;;;;0.40;0.40;;;22.10;65.90;;;;;;5031237;28;20588;-59
2022/09/05 14:13:02;;;;;;;0.38;0.38;;;22.10;66.10;;;;;;5024480;28;20210;-53
2022/09/05 14:15:38;;;;;;;1.05;0.50;;;22.10;66.30;;;;;;5023551;28;20203;-57
2022/09/05 14:18:16;;;;;;;0.30;0.30;;;22.00;66.60;;;;;;5037844;28;20641;-58
2022/09/05 14:23:43;;;;;;;0.30;0.30;;;22.00;66.90;;;;;;5028419;28;20190;-54
2022/09/05 14:26:17;;;;;;;1.23;0.68;;;21.90;66.90;;;;;;5036456;28;20192;-56
2022/09/05 14:28:51;;;;;;;0.40;0.40;;;21.90;67.00;;;;;;5027318;28;20210;-55
2022/09/05 14:31:24;;;;;;;1.65;0.50;;;21.80;67.10;;;;;;5029121;28;20229;-57
2022/09/05 14:34:14;;;;;;;0.40;0.40;;;21.80;67.00;;;;;;5025085;28;20278;-57
2022/09/05 14:36:53;;;;;;;0.40;0.40;;;21.80;66.70;;;;;;5028131;28;20463;-57
2022/09/05 14:39:52;;;;;;;1.85;0.60;;;21.70;66.60;;;;;;5025390;28;20195;-55
2022/09/05 14:42:53;;;;;;;0.50;0.50;;;21.70;66.50;;;;;;5013640;28;20565;-55
2022/09/05 14:45:48;;;;;;;0.52;0.52;;;21.70;66.80;;;;;;4984307;28;20285;-53
2022/09/05 14:48:42;;;;;;;1.00;0.60;;;21.60;66.90;;;;;;5026897;28;20198;-55
2022/09/05 14:51:41;;;;;;;0.40;0.40;;;21.60;67.00;;;;;;5025886;28;20238;-58
2022/09/05 14:54:12;;;;;;;0.40;0.40;;;21.50;66.70;;;;;;5020290;28;20646;-57
2022/09/05 14:56:43;;;;;;;0.52;0.52;;;21.50;66.40;;;;;;5031014;28;20658;-55
2022/09/05 14:59:21;;;;;;;0.45;0.45;;;21.40;66.30;;;;;;5024954;28;20406;-53
2022/09/05 15:01:56;;;;;;;0.30;0.30;;;21.40;66.20;;;;;;5023509;28;20226;-54
2022/09/05 15:04:26;;;;;;;0.32;0.32;;;21.40;66.10;;;;;;5033068;28;20212;-53
2022/09/05 15:07:09;;;;;;;0.47;0.47;;;21.40;66.20;;;;;;5029846;28;20270;-54
2022/09/05 15:09:36;;;;;;;0.50;0.50;;;21.40;66.20;;;;;;5037403;28;20285;-57
2022/09/05 15:12:18;;;;;;;0.40;0.40;;;21.30;66.00;;;;;;5028291;28;20300;-53
2022/09/05 15:14:59;;;;;;;1.00;0.50;;;21.30;66.10;;;;;;5029482;28;20282;-57
2022/09/05 15:17:27;;;;;;;0.40;0.40;;;21.30;65.90;;;;;;5030656;28;20202;-56
2022/09/05 15:19:57;;;;;;;0.45;0.40;;;21.30;65.70;;;;;;5028235;28;20200;-56
2022/09/05 15:22:30;;;;;;;0.50;0.50;;;21.20;65.50;;;;;;5022150;28;20262;-57
2022/09/05 15:25:22;;;;;;;0.60;0.60;;;21.20;66.30;;;;;;5021839;28;20541;-58
2022/09/05 15:27:51;;;;;;;0.60;0.60;;;21.20;65.70;;;;;;5011777;28;20213;-55
2022/09/05 15:30:22;;;;;;;0.60;0.60;;;21.20;65.60;;;;;;5021132;28;20273;-57
2022/09/05 15:32:49;;;;;;;0.60;0.60;;;21.10;65.50;;;;;;5030667;28;20625;-57
2022/09/05 15:35:33;;;;;;;0.43;0.43;;;21.10;65.50;;;;;;5030660;28;20716;-57
2022/09/05 15:38:00;;;;;;;0.40;0.40;;;21.10;65.50;;;;;;5027324;28;20190;-56
2022/09/05 15:40:28;;;;;;;0.40;0.40;;;21.00;65.20;;;;;;5017268;28;20199;-54
2022/09/05 15:42:59;;;;;;;2.17;0.70;;;21.00;64.90;;;;;;5029075;28;20190;-55
2022/09/05 15:45:30;;;;;;;1.10;0.40;;;21.00;64.60;;;;;;5030728;28;20221;-56
2022/09/05 15:48:07;;;;;;;0.38;0.38;;;20.90;64.30;;;;;;5028780;28;20222;-52
2022/09/05 15:50:42;;;;;;;0.40;0.40;;;20.90;64.10;;;;;;5024379;28;20672;-51
2022/09/05 15:53:13;;;;;;;0.60;0.60;;;21.00;63.90;;;;;;5007961;28;20217;-54
2022/09/05 15:55:47;;;;;;;0.60;0.60;;;20.90;63.20;;;;;;5032658;28;20225;-57
2022/09/05 15:58:17;;;;;;;0.40;0.40;;;20.90;63.20;;;;;;5032115;28;20201;-55